sensor_id;sensor_type;location;lat;lon;timestamp;temperature;humidity
20594;DHT22;10455;48.732;10.266;2023-05-10T00:00:54;13.60;99.90
20594;DHT22;10455;48.732;10.266;2023-05-10T00:05:56;13.50;99.90
20594;DHT22;10455;48.732;10.266;2023-05-10T00:10:57;13.40;99.90
20594;DHT22;10455;48.732;10.266;2023-05-10T00:16:01;13.50;99.90
20594;DHT22;10455;48.732;10.266;2023-05-10T00:21:03;13.50;99.90
20594;DHT22;10455;48.732;10.266;2023-05-10T00:26:05;13.60;99.90
20594;DHT22;10455;48.732;10.266;2023-05-10T00:31:09;13.60;99.90
20594;DHT22;10455;48.732;10.266;2023-05-10T00:36:11;13.60;99.90
20594;DHT22;10455;48.732;10.266;2023-05-10T00:41:12;13.70;99.90
20594;DHT22;10455;48.732;10.266;2023-05-10T00:46:17;13.70;99.90
20594;DHT22;10455;48.732;10.266;2023-05-10T00:51:19;13.50;99.90
20594;DHT22;10455;48.732;10.266;2023-05-10T00:56:21;13.50;99.90
20594;DHT22;10455;48.732;10.266;2023-05-10T01:01:26;13.60;99.90
20594;DHT22;10455;48.732;10.266;2023-05-10T01:06:28;13.70;99.90
20594;DHT22;10455;48.732;10.266;2023-05-10T01:11:30;13.80;99.90
20594;DHT22;10455;48.732;10.266;2023-05-10T01:16:36;13.80;99.90
20594;DHT22;10455;48.732;10.266;2023-05-10T01:21:44;13.60;99.90
20594;DHT22;10455;48.732;10.266;2023-05-10T01:38:04;13.20;99.90
20594;DHT22;10455;48.732;10.266;2023-05-10T01:43:21;13.10;99.90
20594;DHT22;10455;48.732;10.266;2023-05-10T01:48:26;13.10;99.90
20594;DHT22;10455;48.732;10.266;2023-05-10T01:53:32;13.10;99.90
20594;DHT22;10455;48.732;10.266;2023-05-10T01:58:36;13.10;99.90
20594;DHT22;10455;48.732;10.266;2023-05-10T02:03:38;13.00;99.90
20594;DHT22;10455;48.732;10.266;2023-05-10T02:08:43;13.00;99.90
20594;DHT22;10455;48.732;10.266;2023-05-10T02:13:48;12.90;99.90
20594;DHT22;10455;48.732;10.266;2023-05-10T02:18:51;12.60;99.90
20594;DHT22;10455;48.732;10.266;2023-05-10T02:23:55;12.50;99.90
20594;DHT22;10455;48.732;10.266;2023-05-10T02:28:59;12.50;99.90
20594;DHT22;10455;48.732;10.266;2023-05-10T02:34:04;12.30;99.90
20594;DHT22;10455;48.732;10.266;2023-05-10T02:39:09;12.20;99.90
20594;DHT22;10455;48.732;10.266;2023-05-10T02:44:14;12.10;99.90
20594;DHT22;10455;48.732;10.266;2023-05-10T02:49:16;12.20;99.90
20594;DHT22;10455;48.732;10.266;2023-05-10T02:54:27;12.20;99.90
20594;DHT22;10455;48.732;10.266;2023-05-10T02:59:31;12.10;99.90
20594;DHT22;10455;48.732;10.266;2023-05-10T03:04:33;12.00;99.90
20594;DHT22;10455;48.732;10.266;2023-05-10T03:09:37;12.00;99.90
20594;DHT22;10455;48.732;10.266;2023-05-10T03:14:48;11.90;99.90
20594;DHT22;10455;48.732;10.266;2023-05-10T03:19:53;11.60;99.90
20594;DHT22;10455;48.732;10.266;2023-05-10T03:24:58;11.50;99.90
20594;DHT22;10455;48.732;10.266;2023-05-10T03:30:04;11.50;99.90
20594;DHT22;10455;48.732;10.266;2023-05-10T03:35:07;11.70;99.90
20594;DHT22;10455;48.732;10.266;2023-05-10T03:40:11;11.60;99.90
20594;DHT22;10455;48.732;10.266;2023-05-10T03:45:13;11.70;99.90
20594;DHT22;10455;48.732;10.266;2023-05-10T03:50:15;11.50;99.90
20594;DHT22;10455;48.732;10.266;2023-05-10T03:55:19;11.60;99.90
20594;DHT22;10455;48.732;10.266;2023-05-10T04:00:21;11.50;99.90
20594;DHT22;10455;48.732;10.266;2023-05-10T04:05:22;11.40;99.90
20594;DHT22;10455;48.732;10.266;2023-05-10T04:10:26;11.50;99.90
20594;DHT22;10455;48.732;10.266;2023-05-10T04:15:28;11.60;99.90
20594;DHT22;10455;48.732;10.266;2023-05-10T04:20:29;11.70;99.90
20594;DHT22;10455;48.732;10.266;2023-05-10T04:25:35;11.80;99.90
20594;DHT22;10455;48.732;10.266;2023-05-10T04:30:37;11.70;99.90
20594;DHT22;10455;48.732;10.266;2023-05-10T04:35:39;11.60;99.90
20594;DHT22;10455;48.732;10.266;2023-05-10T04:40:42;11.70;99.90
20594;DHT22;10455;48.732;10.266;2023-05-10T04:45:44;11.90;99.90
20594;DHT22;10455;48.732;10.266;2023-05-10T04:50:46;12.10;99.90
20594;DHT22;10455;48.732;10.266;2023-05-10T04:55:49;12.20;99.90
20594;DHT22;10455;48.732;10.266;2023-05-10T05:00:51;12.30;99.90
20594;DHT22;10455;48.732;10.266;2023-05-10T05:05:53;12.50;99.90
20594;DHT22;10455;48.732;10.266;2023-05-10T05:10:56;12.70;99.90
20594;DHT22;10455;48.732;10.266;2023-05-10T05:16:00;12.90;99.90
20594;DHT22;10455;48.732;10.266;2023-05-10T05:21:02;12.90;99.90
20594;DHT22;10455;48.732;10.266;2023-05-10T05:26:06;13.00;99.90
20594;DHT22;10455;48.732;10.266;2023-05-10T05:31:08;13.20;99.90
20594;DHT22;10455;48.732;10.266;2023-05-10T05:36:09;13.20;99.90
20594;DHT22;10455;48.732;10.266;2023-05-10T05:41:13;13.30;99.90
20594;DHT22;10455;48.732;10.266;2023-05-10T05:46:14;13.50;99.90
20594;DHT22;10455;48.732;10.266;2023-05-10T05:51:16;13.70;99.90
20594;DHT22;10455;48.732;10.266;2023-05-10T05:56:21;13.70;99.90
20594;DHT22;10455;48.732;10.266;2023-05-10T06:01:24;13.90;99.90
20594;DHT22;10455;48.732;10.266;2023-05-10T06:06:26;14.10;99.90
20594;DHT22;10455;48.732;10.266;2023-05-10T06:11:29;14.20;99.90
20594;DHT22;10455;48.732;10.266;2023-05-10T06:16:32;14.20;99.90
20594;DHT22;10455;48.732;10.266;2023-05-10T06:21:34;13.90;99.90
20594;DHT22;10455;48.732;10.266;2023-05-10T06:26:37;13.90;99.90
20594;DHT22;10455;48.732;10.266;2023-05-10T06:31:39;14.10;99.90
20594;DHT22;10455;48.732;10.266;2023-05-10T06:36:41;14.30;99.90
20594;DHT22;10455;48.732;10.266;2023-05-10T06:41:44;13.90;99.90
20594;DHT22;10455;48.732;10.266;2023-05-10T06:46:46;13.90;99.90
20594;DHT22;10455;48.732;10.266;2023-05-10T06:51:48;13.90;99.90
20594;DHT22;10455;48.732;10.266;2023-05-10T06:56:51;14.30;99.90
20594;DHT22;10455;48.732;10.266;2023-05-10T07:01:53;14.20;99.90
20594;DHT22;10455;48.732;10.266;2023-05-10T07:06:55;14.70;99.90
20594;DHT22;10455;48.732;10.266;2023-05-10T07:11:59;15.20;99.90
20594;DHT22;10455;48.732;10.266;2023-05-10T07:17:02;15.30;99.90
20594;DHT22;10455;48.732;10.266;2023-05-10T07:22:04;15.20;99.90
20594;DHT22;10455;48.732;10.266;2023-05-10T07:27:07;15.30;99.90
20594;DHT22;10455;48.732;10.266;2023-05-10T07:32:09;16.30;99.90
20594;DHT22;10455;48.732;10.266;2023-05-10T07:37:11;17.60;99.90
20594;DHT22;10455;48.732;10.266;2023-05-10T07:42:14;17.40;99.90
20594;DHT22;10455;48.732;10.266;2023-05-10T07:47:16;17.20;99.90
20594;DHT22;10455;48.732;10.266;2023-05-10T07:52:18;16.60;99.90
20594;DHT22;10455;48.732;10.266;2023-05-10T07:57:21;17.20;99.90
20594;DHT22;10455;48.732;10.266;2023-05-10T08:02:23;17.50;99.90
20594;DHT22;10455;48.732;10.266;2023-05-10T08:07:25;17.80;99.90
20594;DHT22;10455;48.732;10.266;2023-05-10T08:12:28;18.70;99.90
20594;DHT22;10455;48.732;10.266;2023-05-10T08:17:31;18.90;99.90
20594;DHT22;10455;48.732;10.266;2023-05-10T08:22:32;18.50;99.90
20594;DHT22;10455;48.732;10.266;2023-05-10T08:27:36;17.30;99.90
20594;DHT22;10455;48.732;10.266;2023-05-10T08:32:38;16.90;99.90
20594;DHT22;10455;48.732;10.266;2023-05-10T08:37:39;17.60;99.90
20594;DHT22;10455;48.732;10.266;2023-05-10T08:42:47;17.30;99.90
20594;DHT22;10455;48.732;10.266;2023-05-10T08:47:52;17.40;99.90
20594;DHT22;10455;48.732;10.266;2023-05-10T08:52:55;18.10;99.90
20594;DHT22;10455;48.732;10.266;2023-05-10T08:58:00;19.00;99.90
20594;DHT22;10455;48.732;10.266;2023-05-10T09:03:04;18.60;99.90
20594;DHT22;10455;48.732;10.266;2023-05-10T09:08:07;17.70;99.90
20594;DHT22;10455;48.732;10.266;2023-05-10T09:13:11;17.40;99.90
20594;DHT22;10455;48.732;10.266;2023-05-10T09:18:13;17.70;99.90
20594;DHT22;10455;48.732;10.266;2023-05-10T09:23:15;18.00;99.90
20594;DHT22;10455;48.732;10.266;2023-05-10T09:28:18;18.50;99.90
20594;DHT22;10455;48.732;10.266;2023-05-10T09:33:20;18.70;99.90
20594;DHT22;10455;48.732;10.266;2023-05-10T09:38:22;19.90;99.90
20594;DHT22;10455;48.732;10.266;2023-05-10T09:43:25;20.90;99.90
20594;DHT22;10455;48.732;10.266;2023-05-10T09:48:27;22.30;99.90
20594;DHT22;10455;48.732;10.266;2023-05-10T09:53:29;22.30;99.90
20594;DHT22;10455;48.732;10.266;2023-05-10T09:58:36;22.90;99.90
20594;DHT22;10455;48.732;10.266;2023-05-10T10:03:42;22.80;99.90
20594;DHT22;10455;48.732;10.266;2023-05-10T10:08:44;21.50;99.90
20594;DHT22;10455;48.732;10.266;2023-05-10T10:13:48;20.10;99.90
20594;DHT22;10455;48.732;10.266;2023-05-10T10:18:50;19.70;99.90
20594;DHT22;10455;48.732;10.266;2023-05-10T10:23:52;19.20;99.90
20594;DHT22;10455;48.732;10.266;2023-05-10T10:34:05;19.90;99.90
20594;DHT22;10455;48.732;10.266;2023-05-10T10:39:09;19.50;99.90
20594;DHT22;10455;48.732;10.266;2023-05-10T10:44:36;19.00;99.90
20594;DHT22;10455;48.732;10.266;2023-05-10T10:49:48;17.60;99.90
20594;DHT22;10455;48.732;10.266;2023-05-10T10:54:50;16.90;99.90
20594;DHT22;10455;48.732;10.266;2023-05-10T11:00:17;15.80;99.90
20594;DHT22;10455;48.732;10.266;2023-05-10T11:05:36;15.80;99.90
20594;DHT22;10455;48.732;10.266;2023-05-10T11:10:38;16.00;99.90
20594;DHT22;10455;48.732;10.266;2023-05-10T11:15:48;16.30;99.90
20594;DHT22;10455;48.732;10.266;2023-05-10T11:20:52;16.00;99.90
20594;DHT22;10455;48.732;10.266;2023-05-10T11:25:55;16.30;99.90
20594;DHT22;10455;48.732;10.266;2023-05-10T11:36:11;16.90;99.90
20594;DHT22;10455;48.732;10.266;2023-05-10T11:41:13;18.20;99.90
20594;DHT22;10455;48.732;10.266;2023-05-10T11:46:15;18.60;99.90
20594;DHT22;10455;48.732;10.266;2023-05-10T11:51:22;18.40;99.90
20594;DHT22;10455;48.732;10.266;2023-05-10T11:56:24;18.40;99.90
20594;DHT22;10455;48.732;10.266;2023-05-10T12:01:28;18.30;99.90
20594;DHT22;10455;48.732;10.266;2023-05-10T12:06:32;18.50;99.90
20594;DHT22;10455;48.732;10.266;2023-05-10T12:11:37;19.30;99.90
20594;DHT22;10455;48.732;10.266;2023-05-10T12:16:39;18.90;99.90
20594;DHT22;10455;48.732;10.266;2023-05-10T12:21:44;18.40;99.90
20594;DHT22;10455;48.732;10.266;2023-05-10T12:26:46;17.90;99.90
20594;DHT22;10455;48.732;10.266;2023-05-10T12:31:52;17.80;99.90
20594;DHT22;10455;48.732;10.266;2023-05-10T12:36:56;17.50;99.90
20594;DHT22;10455;48.732;10.266;2023-05-10T12:41:57;17.30;99.90
20594;DHT22;10455;48.732;10.266;2023-05-10T12:46:59;17.50;99.90
20594;DHT22;10455;48.732;10.266;2023-05-10T12:52:03;18.00;99.90
20594;DHT22;10455;48.732;10.266;2023-05-10T12:57:04;17.60;99.90
20594;DHT22;10455;48.732;10.266;2023-05-10T13:02:07;16.80;99.90
20594;DHT22;10455;48.732;10.266;2023-05-10T13:07:10;15.70;99.90
20594;DHT22;10455;48.732;10.266;2023-05-10T13:12:12;14.70;99.90
20594;DHT22;10455;48.732;10.266;2023-05-10T13:17:13;14.60;99.90
20594;DHT22;10455;48.732;10.266;2023-05-10T13:22:17;14.20;99.90
20594;DHT22;10455;48.732;10.266;2023-05-10T13:27:19;14.20;99.90
20594;DHT22;10455;48.732;10.266;2023-05-10T13:32:21;13.70;99.90
20594;DHT22;10455;48.732;10.266;2023-05-10T13:37:24;13.40;99.90
20594;DHT22;10455;48.732;10.266;2023-05-10T13:42:26;13.00;99.90
20594;DHT22;10455;48.732;10.266;2023-05-10T13:47:28;12.90;99.90
20594;DHT22;10455;48.732;10.266;2023-05-10T13:52:32;13.10;99.90
20594;DHT22;10455;48.732;10.266;2023-05-10T13:57:34;13.40;99.90
20594;DHT22;10455;48.732;10.266;2023-05-10T14:02:36;13.40;99.90
20594;DHT22;10455;48.732;10.266;2023-05-10T14:07:39;13.80;99.90
20594;DHT22;10455;48.732;10.266;2023-05-10T14:12:41;14.10;99.90
20594;DHT22;10455;48.732;10.266;2023-05-10T14:17:43;14.00;99.90
20594;DHT22;10455;48.732;10.266;2023-05-10T14:22:46;14.10;99.90
20594;DHT22;10455;48.732;10.266;2023-05-10T14:27:48;13.90;99.90
20594;DHT22;10455;48.732;10.266;2023-05-10T14:32:50;13.50;99.90
20594;DHT22;10455;48.732;10.266;2023-05-10T14:37:55;13.50;99.90
20594;DHT22;10455;48.732;10.266;2023-05-10T14:42:57;13.40;99.90
20594;DHT22;10455;48.732;10.266;2023-05-10T14:47:59;13.10;99.90
20594;DHT22;10455;48.732;10.266;2023-05-10T14:53:02;13.00;99.90
20594;DHT22;10455;48.732;10.266;2023-05-10T14:58:04;12.80;99.90
20594;DHT22;10455;48.732;10.266;2023-05-10T15:03:06;12.60;99.90
20594;DHT22;10455;48.732;10.266;2023-05-10T15:08:09;12.60;99.90
20594;DHT22;10455;48.732;10.266;2023-05-10T15:13:12;12.70;99.90
20594;DHT22;10455;48.732;10.266;2023-05-10T15:18:14;12.50;99.90
20594;DHT22;10455;48.732;10.266;2023-05-10T15:23:18;12.70;99.90
20594;DHT22;10455;48.732;10.266;2023-05-10T15:28:20;13.00;99.90
20594;DHT22;10455;48.732;10.266;2023-05-10T15:33:21;13.30;99.90
20594;DHT22;10455;48.732;10.266;2023-05-10T15:38:25;13.30;99.90
20594;DHT22;10455;48.732;10.266;2023-05-10T15:43:27;13.60;99.90
20594;DHT22;10455;48.732;10.266;2023-05-10T15:48:28;13.70;99.90
20594;DHT22;10455;48.732;10.266;2023-05-10T15:53:33;13.70;99.90
20594;DHT22;10455;48.732;10.266;2023-05-10T15:58:35;13.80;99.90
20594;DHT22;10455;48.732;10.266;2023-05-10T16:03:38;13.90;99.90
20594;DHT22;10455;48.732;10.266;2023-05-10T16:08:41;13.90;99.90
20594;DHT22;10455;48.732;10.266;2023-05-10T16:13:43;13.80;99.90
20594;DHT22;10455;48.732;10.266;2023-05-10T16:18:45;13.90;99.90
20594;DHT22;10455;48.732;10.266;2023-05-10T16:23:48;13.80;99.90
20594;DHT22;10455;48.732;10.266;2023-05-10T16:28:50;13.70;99.90
20594;DHT22;10455;48.732;10.266;2023-05-10T16:33:52;13.50;99.90
20594;DHT22;10455;48.732;10.266;2023-05-10T16:38:55;13.30;99.90
20594;DHT22;10455;48.732;10.266;2023-05-10T16:43:57;13.20;99.90
20594;DHT22;10455;48.732;10.266;2023-05-10T16:48:59;13.10;99.90
20594;DHT22;10455;48.732;10.266;2023-05-10T16:54:03;13.00;99.90
20594;DHT22;10455;48.732;10.266;2023-05-10T16:59:05;13.10;99.90
20594;DHT22;10455;48.732;10.266;2023-05-10T17:04:06;13.10;99.90
20594;DHT22;10455;48.732;10.266;2023-05-10T17:09:10;13.00;99.90
20594;DHT22;10455;48.732;10.266;2023-05-10T17:14:12;13.00;99.90
20594;DHT22;10455;48.732;10.266;2023-05-10T17:19:14;13.00;99.90
20594;DHT22;10455;48.732;10.266;2023-05-10T17:24:17;13.00;99.90
20594;DHT22;10455;48.732;10.266;2023-05-10T17:29:19;13.10;99.90
20594;DHT22;10455;48.732;10.266;2023-05-10T17:34:21;13.00;99.90
20594;DHT22;10455;48.732;10.266;2023-05-10T17:39:24;12.90;99.90
20594;DHT22;10455;48.732;10.266;2023-05-10T17:44:26;12.80;99.90
20594;DHT22;10455;48.732;10.266;2023-05-10T17:49:28;12.80;99.90
20594;DHT22;10455;48.732;10.266;2023-05-10T17:54:31;12.80;99.90
20594;DHT22;10455;48.732;10.266;2023-05-10T17:59:33;12.80;99.90
20594;DHT22;10455;48.732;10.266;2023-05-10T18:04:35;12.60;99.90
20594;DHT22;10455;48.732;10.266;2023-05-10T18:09:38;12.50;99.90
20594;DHT22;10455;48.732;10.266;2023-05-10T18:14:40;12.40;99.90
20594;DHT22;10455;48.732;10.266;2023-05-10T18:19:42;12.40;99.90
20594;DHT22;10455;48.732;10.266;2023-05-10T18:24:45;12.40;99.90
20594;DHT22;10455;48.732;10.266;2023-05-10T18:29:47;12.30;99.90
20594;DHT22;10455;48.732;10.266;2023-05-10T18:34:49;12.30;99.90
20594;DHT22;10455;48.732;10.266;2023-05-10T18:39:52;12.20;99.90
20594;DHT22;10455;48.732;10.266;2023-05-10T18:44:54;12.10;99.90
20594;DHT22;10455;48.732;10.266;2023-05-10T18:49:56;12.00;99.90
20594;DHT22;10455;48.732;10.266;2023-05-10T18:54:59;11.90;99.90
20594;DHT22;10455;48.732;10.266;2023-05-10T19:00:01;11.90;99.90
20594;DHT22;10455;48.732;10.266;2023-05-10T19:05:04;11.80;99.90
20594;DHT22;10455;48.732;10.266;2023-05-10T19:10:09;11.80;99.90
20594;DHT22;10455;48.732;10.266;2023-05-10T19:15:11;11.70;99.90
20594;DHT22;10455;48.732;10.266;2023-05-10T19:20:12;11.70;99.90
20594;DHT22;10455;48.732;10.266;2023-05-10T19:25:16;11.60;99.90
20594;DHT22;10455;48.732;10.266;2023-05-10T19:30:19;11.50;99.90
20594;DHT22;10455;48.732;10.266;2023-05-10T19:35:21;11.50;99.90
20594;DHT22;10455;48.732;10.266;2023-05-10T19:40:24;11.50;99.90
20594;DHT22;10455;48.732;10.266;2023-05-10T19:45:26;11.50;99.90
20594;DHT22;10455;48.732;10.266;2023-05-10T19:50:28;11.50;99.90
20594;DHT22;10455;48.732;10.266;2023-05-10T19:55:31;11.60;99.90
20594;DHT22;10455;48.732;10.266;2023-05-10T20:05:50;11.60;99.90
20594;DHT22;10455;48.732;10.266;2023-05-10T20:10:53;11.60;99.90
20594;DHT22;10455;48.732;10.266;2023-05-10T20:15:57;11.70;99.90
20594;DHT22;10455;48.732;10.266;2023-05-10T20:20:59;11.70;99.90
20594;DHT22;10455;48.732;10.266;2023-05-10T20:26:03;11.60;99.90
20594;DHT22;10455;48.732;10.266;2023-05-10T20:31:05;11.70;99.90
20594;DHT22;10455;48.732;10.266;2023-05-10T20:36:07;11.70;99.90
20594;DHT22;10455;48.732;10.266;2023-05-10T20:41:11;11.70;99.90
20594;DHT22;10455;48.732;10.266;2023-05-10T20:46:13;11.70;99.90
20594;DHT22;10455;48.732;10.266;2023-05-10T20:51:15;11.70;99.90
20594;DHT22;10455;48.732;10.266;2023-05-10T20:56:18;11.70;99.90
20594;DHT22;10455;48.732;10.266;2023-05-10T21:01:21;11.70;99.90
20594;DHT22;10455;48.732;10.266;2023-05-10T21:06:22;11.70;99.90
20594;DHT22;10455;48.732;10.266;2023-05-10T21:11:26;11.80;99.90
20594;DHT22;10455;48.732;10.266;2023-05-10T21:16:28;11.80;99.90
20594;DHT22;10455;48.732;10.266;2023-05-10T21:21:29;11.70;99.90
20594;DHT22;10455;48.732;10.266;2023-05-10T21:26:33;11.80;99.90
20594;DHT22;10455;48.732;10.266;2023-05-10T21:31:35;11.80;99.90
20594;DHT22;10455;48.732;10.266;2023-05-10T21:36:37;11.70;99.90
20594;DHT22;10455;48.732;10.266;2023-05-10T21:41:40;11.90;99.90
20594;DHT22;10455;48.732;10.266;2023-05-10T21:46:42;11.80;99.90
20594;DHT22;10455;48.732;10.266;2023-05-10T21:51:44;11.80;99.90
20594;DHT22;10455;48.732;10.266;2023-05-10T21:56:48;11.80;99.90
20594;DHT22;10455;48.732;10.266;2023-05-10T22:01:50;11.70;99.90
20594;DHT22;10455;48.732;10.266;2023-05-10T22:06:51;11.60;99.90
20594;DHT22;10455;48.732;10.266;2023-05-10T22:11:55;11.60;99.90
20594;DHT22;10455;48.732;10.266;2023-05-10T22:16:56;11.50;99.90
20594;DHT22;10455;48.732;10.266;2023-05-10T22:21:58;11.50;99.90
20594;DHT22;10455;48.732;10.266;2023-05-10T22:27:02;11.40;99.90
20594;DHT22;10455;48.732;10.266;2023-05-10T22:32:04;11.50;99.90
20594;DHT22;10455;48.732;10.266;2023-05-10T22:37:06;11.50;99.90
20594;DHT22;10455;48.732;10.266;2023-05-10T22:42:09;11.60;99.90
20594;DHT22;10455;48.732;10.266;2023-05-10T22:47:11;11.60;99.90
20594;DHT22;10455;48.732;10.266;2023-05-10T22:52:14;11.50;99.90
20594;DHT22;10455;48.732;10.266;2023-05-10T22:57:17;11.50;99.90
20594;DHT22;10455;48.732;10.266;2023-05-10T23:02:19;11.50;99.90
20594;DHT22;10455;48.732;10.266;2023-05-10T23:07:21;11.40;99.90
20594;DHT22;10455;48.732;10.266;2023-05-10T23:12:24;11.50;99.90
20594;DHT22;10455;48.732;10.266;2023-05-10T23:17:26;11.50;99.90
20594;DHT22;10455;48.732;10.266;2023-05-10T23:22:28;11.60;99.90
20594;DHT22;10455;48.732;10.266;2023-05-10T23:27:32;11.50;99.90
20594;DHT22;10455;48.732;10.266;2023-05-10T23:32:34;11.40;99.90
20594;DHT22;10455;48.732;10.266;2023-05-10T23:37:39;11.40;99.90
20594;DHT22;10455;48.732;10.266;2023-05-10T23:42:49;11.30;99.90
20594;DHT22;10455;48.732;10.266;2023-05-10T23:47:52;11.30;99.90
20594;DHT22;10455;48.732;10.266;2023-05-10T23:52:54;11.30;99.90
20594;DHT22;10455;48.732;10.266;2023-05-10T23:58:15;11.20;99.90
